Time;durP1;ratioP1;P1;durP2;ratioP2;P2;SDS_P1;SDS_P2;PMS_P1;PMS_P2;Temp;Humidity;BMP_temperature;BMP_pressure;BME280_temperature;BME280_humidity;BME280_pressure;Samples;Min_cycle;Max_cycle;Signal;HPM_P1;HPM_P2
2022/02/11 00:09:03;;;;;;;18.42;9.45;;;;;;;;;;5015029;28;20510;-70
2022/02/11 00:11:36;;;;;;;25.05;12.05;;;;;;;;;;5015052;28;20126;-69
2022/02/11 00:14:03;;;;;;;19.17;9.93;;;;;;;;;;5014136;28;20117;-69
2022/02/11 00:16:29;;;;;;;25.92;13.73;;;;;;;;;;5015029;28;20022;-69
2022/02/11 00:18:58;;;;;;;20.40;10.65;;;;;;;;;;5013448;28;20045;-71
2022/02/11 00:21:24;;;;;;;20.30;10.48;;;;;;;;;;5014858;28;20020;-71
2022/02/11 00:23:50;;;;;;;23.70;10.68;;;;;;;;;;5014087;28;20022;-70
2022/02/11 00:26:16;;;;;;;21.88;11.52;;;;;;;;;;5014675;28;20029;-72
2022/02/11 00:29:42;;;;;;;18.13;9.15;;;;;;;;;;5013330;28;20101;-72
2022/02/11 00:34:03;;;;;;;20.30;10.20;;;;;;;;;;5014055;28;20070;-69
2022/02/11 00:36:41;;;;;;;21.95;11.73;;;;;;;;;;5014742;28;20073;-68
2022/02/11 00:39:28;;;;;;;21.90;10.60;;;;;;;;;;5014227;28;20036;-69
2022/02/11 01:03:58;;;;;;;20.63;9.88;;;;;;;;;;4993765;28;20041;-71
2022/02/11 01:06:25;;;;;;;27.98;12.07;;;;;;;;;;4994589;28;20071;-68
2022/02/11 01:08:51;;;;;;;27.05;12.80;;;;;;;;;;4994465;28;20126;-67
2022/02/11 01:11:27;;;;;;;32.17;14.60;;;;;;;;;;4994178;28;20089;-70
2022/02/11 01:13:53;;;;;;;22.30;10.30;;;;;;;;;;4994024;28;20026;-70
2022/02/11 01:16:26;;;;;;;21.60;11.45;;;;;;;;;;5000703;28;20014;-69
2022/02/11 01:19:03;;;;;;;18.33;9.13;;;;;;;;;;5013826;28;20041;-72
2022/02/11 01:21:38;;;;;;;22.70;10.30;;;;;;;;;;5014164;28;20071;-70
2022/02/11 01:27:11;;;;;;;17.48;9.20;;;;;;;;;;5008744;28;20109;-70
2022/02/11 01:48:24;;;;;;;13.00;7.03;;;;;;;;;;5013206;28;20056;-67
2022/02/11 01:53:23;;;;;;;28.90;10.50;;;;;;;;;;5012473;28;20030;-70
2022/02/11 02:09:58;;;;;;;17.20;9.05;;;;;;;;;;5013049;28;20669;-67
2022/02/11 02:12:37;;;;;;;21.67;8.50;;;;;;;;;;5012585;28;20088;-70
2022/02/11 02:18:50;;;;;;;24.45;11.63;;;;;;;;;;5001237;28;20121;-68
2022/02/11 02:23:58;;;;;;;25.50;10.65;;;;;;;;;;5012219;28;20053;-67
2022/02/11 02:37:17;;;;;;;;;;;;;;;;;;;;;
2022/02/11 02:58:47;;;;;;;12.70;6.78;;;;;;;;;;5019736;28;20036;-70
2022/02/11 03:01:46;;;;;;;10.48;5.93;;;;;;;;;;5032005;28;20163;-70
2022/02/11 03:51:12;;;;;;;11.10;4.68;;;;;;;;;;4992010;28;20523;-72
2022/02/11 04:55:43;;;;;;;10.98;5.75;;;;;;;;;;4994285;28;20041;-73
2022/02/11 05:00:54;;;;;;;11.35;5.40;;;;;;;;;;4994808;28;20041;-72
2022/02/11 05:03:20;;;;;;;12.02;6.03;;;;;;;;;;5000537;28;20022;-72
2022/02/11 05:05:49;;;;;;;11.80;5.38;;;;;;;;;;5014096;28;20022;-72
2022/02/11 05:08:19;;;;;;;11.82;5.55;;;;;;;;;;5013991;28;20088;-72
2022/02/11 05:10:45;;;;;;;9.65;4.78;;;;;;;;;;5014010;28;20106;-72
2022/02/11 05:13:12;;;;;;;11.38;5.30;;;;;;;;;;5013446;28;20058;-72
2022/02/11 05:15:38;;;;;;;9.82;4.28;;;;;;;;;;5012531;28;20069;-73
2022/02/11 05:18:04;;;;;;;12.70;5.40;;;;;;;;;;5014037;28;20030;-71
2022/02/11 05:20:30;;;;;;;12.95;4.82;;;;;;;;;;5013717;28;20050;-72
2022/02/11 05:22:56;;;;;;;11.00;5.05;;;;;;;;;;5013095;28;20065;-73
2022/02/11 05:25:22;;;;;;;10.07;5.57;;;;;;;;;;5012210;28;20484;-72
2022/02/11 05:27:48;;;;;;;10.95;5.97;;;;;;;;;;5013526;28;20030;-72
2022/02/11 05:30:14;;;;;;;10.90;5.68;;;;;;;;;;5013420;28;20057;-72
2022/02/11 05:32:40;;;;;;;11.50;5.80;;;;;;;;;;5013373;28;20481;-73
2022/02/11 05:35:06;;;;;;;5.97;3.90;;;;;;;;;;5013130;28;20030;-73
2022/02/11 05:37:32;;;;;;;10.63;4.82;;;;;;;;;;5013258;28;20034;-72
2022/02/11 05:39:58;;;;;;;10.90;5.15;;;;;;;;;;5013337;28;20087;-72
2022/02/11 05:42:24;;;;;;;9.88;4.60;;;;;;;;;;5013989;28;20037;-73
2022/02/11 05:44:50;;;;;;;10.32;4.45;;;;;;;;;;5012672;28;20026;-73
2022/02/11 05:47:16;;;;;;;8.60;4.25;;;;;;;;;;5013701;28;20028;-73
2022/02/11 05:49:42;;;;;;;12.00;5.15;;;;;;;;;;5013382;28;20136;-73
2022/02/11 05:52:08;;;;;;;7.38;4.68;;;;;;;;;;5013535;28;20022;-73
2022/02/11 05:54:34;;;;;;;7.70;3.72;;;;;;;;;;5012643;28;20025;-74
2022/02/11 05:57:00;;;;;;;11.25;4.63;;;;;;;;;;5013194;28;20026;-73
2022/02/11 05:59:26;;;;;;;9.25;4.47;;;;;;;;;;5012725;28;20030;-72
2022/02/11 06:01:52;;;;;;;9.88;5.18;;;;;;;;;;5011825;28;20018;-72
2022/02/11 06:04:18;;;;;;;5.82;3.42;;;;;;;;;;5012632;28;20510;-74
2022/02/11 06:06:44;;;;;;;11.25;4.78;;;;;;;;;;5013092;28;20106;-73
2022/02/11 06:09:10;;;;;;;6.22;3.58;;;;;;;;;;5011892;28;20121;-73
2022/02/11 06:11:39;;;;;;;5.85;3.33;;;;;;;;;;5012881;28;20037;-72
2022/02/11 06:14:05;;;;;;;13.52;5.97;;;;;;;;;;5011989;28;20065;-72
2022/02/11 06:16:31;;;;;;;8.95;4.20;;;;;;;;;;5013079;28;20305;-72
2022/02/11 06:18:57;;;;;;;12.98;5.43;;;;;;;;;;5012786;28;20053;-72
2022/02/11 06:21:23;;;;;;;12.52;5.82;;;;;;;;;;5012734;28;20030;-72
2022/02/11 06:23:55;;;;;;;9.00;4.55;;;;;;;;;;5012042;28;20037;-74
2022/02/11 06:26:21;;;;;;;6.63;3.78;;;;;;;;;;5012762;28;20018;-72
2022/02/11 06:28:47;;;;;;;8.25;4.43;;;;;;;;;;5012647;28;20026;-73
2022/02/11 06:31:13;;;;;;;6.95;3.92;;;;;;;;;;5012503;28;20361;-73
2022/02/11 06:33:39;;;;;;;8.43;4.13;;;;;;;;;;5010719;28;20488;-73
2022/02/11 06:36:05;;;;;;;8.02;4.45;;;;;;;;;;5012551;28;20026;-73
2022/02/11 06:38:31;;;;;;;9.63;3.85;;;;;;;;;;5012332;28;20175;-73
2022/02/11 06:40:57;;;;;;;14.40;5.20;;;;;;;;;;5011912;28;20105;-73
2022/02/11 06:43:23;;;;;;;9.13;4.30;;;;;;;;;;5010598;28;20116;-73
2022/02/11 06:45:49;;;;;;;10.23;4.03;;;;;;;;;;5011993;28;20143;-73
2022/02/11 06:48:16;;;;;;;7.57;3.50;;;;;;;;;;5012414;28;20034;-73
2022/02/11 06:50:43;;;;;;;4.50;2.80;;;;;;;;;;5006213;28;20055;-72
2022/02/11 06:53:10;;;;;;;3.60;2.55;;;;;;;;;;4995451;28;20054;-72
2022/02/11 06:55:36;;;;;;;5.47;2.15;;;;;;;;;;5010412;28;20018;-72
2022/02/11 06:58:02;;;;;;;5.35;3.40;;;;;;;;;;5011844;28;20551;-72
2022/02/11 07:00:28;;;;;;;9.00;3.95;;;;;;;;;;5012406;28;20109;-72
2022/02/11 07:02:54;;;;;;;7.93;3.05;;;;;;;;;;5011307;28;20026;-71
2022/02/11 07:05:20;;;;;;;6.32;3.40;;;;;;;;;;5012326;28;20080;-72
2022/02/11 07:07:47;;;;;;;7.35;3.80;;;;;;;;;;5011214;28;20052;-72
2022/02/11 07:10:13;;;;;;;5.05;2.65;;;;;;;;;;5012188;28;20499;-72
2022/02/11 07:12:39;;;;;;;4.50;2.22;;;;;;;;;;5010729;28;20036;-72
2022/02/11 07:15:05;;;;;;;4.88;2.63;;;;;;;;;;5011484;28;20353;-72
2022/02/11 07:17:33;;;;;;;4.00;2.47;;;;;;;;;;5012116;28;20022;-71
2022/02/11 07:19:59;;;;;;;4.40;2.42;;;;;;;;;;5012166;28;20037;-72
2022/02/11 07:22:25;;;;;;;7.28;3.13;;;;;;;;;;5011895;28;20428;-72
2022/02/11 07:24:53;;;;;;;4.72;2.65;;;;;;;;;;5010859;28;20170;-73
2022/02/11 07:27:19;;;;;;;6.25;2.70;;;;;;;;;;5012181;28;20030;-73
2022/02/11 07:29:45;;;;;;;6.65;3.13;;;;;;;;;;5010416;28;20032;-73
2022/02/11 07:32:11;;;;;;;5.88;2.80;;;;;;;;;;5011918;28;20018;-73
2022/02/11 07:34:40;;;;;;;7.95;3.65;;;;;;;;;;5011193;28;20028;-73
2022/02/11 07:37:06;;;;;;;5.95;3.25;;;;;;;;;;5011835;28;20105;-73
2022/02/11 07:39:32;;;;;;;6.07;3.15;;;;;;;;;;5011911;28;20133;-73
2022/02/11 07:41:58;;;;;;;6.93;3.70;;;;;;;;;;5010693;28;20067;-72
2022/02/11 07:44:24;;;;;;;5.53;3.25;;;;;;;;;;5011559;28;20026;-73
2022/02/11 07:46:51;;;;;;;8.82;5.57;;;;;;;;;;5011997;28;20057;-73
2022/02/11 07:49:17;;;;;;;6.45;3.58;;;;;;;;;;5012051;28;20022;-73
2022/02/11 07:51:43;;;;;;;4.40;2.70;;;;;;;;;;5011813;28;20032;-73
2022/02/11 07:54:09;;;;;;;6.97;3.67;;;;;;;;;;5011114;28;20026;-73
2022/02/11 07:56:35;;;;;;;8.15;3.95;;;;;;;;;;5010836;28;20363;-73
2022/02/11 07:59:01;;;;;;;7.53;4.32;;;;;;;;;;5013901;28;20109;-72
2022/02/11 08:01:27;;;;;;;7.57;3.67;;;;;;;;;;5016089;28;20021;-72
2022/02/11 08:03:53;;;;;;;7.53;3.47;;;;;;;;;;5014763;28;20022;-72
2022/02/11 08:06:19;;;;;;;7.97;3.63;;;;;;;;;;5014242;28;20435;-72
2022/02/11 08:08:45;;;;;;;7.22;3.50;;;;;;;;;;5015379;28;20030;-73
2022/02/11 08:11:11;;;;;;;6.88;3.58;;;;;;;;;;5015505;28;20037;-72
2022/02/11 08:13:37;;;;;;;7.30;4.13;;;;;;;;;;5014476;28;20080;-72
2022/02/11 08:16:04;;;;;;;7.78;4.45;;;;;;;;;;5015608;28;20491;-73
2022/02/11 08:18:30;;;;;;;10.77;4.00;;;;;;;;;;5015105;28;20060;-72
2022/02/11 08:20:56;;;;;;;6.68;4.15;;;;;;;;;;5015515;28;20073;-72
2022/02/11 08:23:24;;;;;;;8.75;4.00;;;;;;;;;;5020717;28;20026;-73
2022/02/11 08:25:50;;;;;;;7.78;4.32;;;;;;;;;;5017510;28;20382;-73
2022/02/11 08:28:17;;;;;;;7.07;3.53;;;;;;;;;;5019682;28;20030;-72
2022/02/11 08:30:44;;;;;;;6.88;3.75;;;;;;;;;;5000106;28;20177;-73
2022/02/11 08:33:10;;;;;;;7.25;4.15;;;;;;;;;;4994266;28;20023;-74
2022/02/11 08:35:36;;;;;;;10.80;4.80;;;;;;;;;;4995623;28;20037;-73
2022/02/11 08:38:02;;;;;;;10.13;3.72;;;;;;;;;;4994096;28;20525;-73
2022/02/11 08:40:28;;;;;;;5.82;3.13;;;;;;;;;;5030503;23;20049;-72
2022/02/11 08:42:54;;;;;;;10.20;4.55;;;;;;;;;;5013651;28;20033;-71
2022/02/11 08:45:20;;;;;;;6.28;3.80;;;;;;;;;;5014195;28;20018;-71
2022/02/11 08:47:46;;;;;;;5.95;3.13;;;;;;;;;;5012732;28;20142;-71
2022/02/11 08:50:18;;;;;;;5.05;3.10;;;;;;;;;;5014159;28;20105;-72
2022/02/11 08:52:44;;;;;;;8.82;2.97;;;;;;;;;;5009128;28;20030;-72
2022/02/11 08:55:10;;;;;;;6.68;2.80;;;;;;;;;;5011390;28;20293;-72
2022/02/11 08:57:43;;;;;;;7.22;2.83;;;;;;;;;;5013991;28;20026;-71
2022/02/11 09:00:09;;;;;;;7.00;2.67;;;;;;;;;;5013644;28;20060;-71
2022/02/11 09:02:36;;;;;;;6.45;2.75;;;;;;;;;;5013868;28;20469;-72
2022/02/11 09:05:02;;;;;;;5.55;3.53;;;;;;;;;;5014905;28;20022;-71
2022/02/11 09:07:29;;;;;;;6.53;3.03;;;;;;;;;;5033583;28;20496;-71
2022/02/11 09:09:55;;;;;;;4.85;3.45;;;;;;;;;;5033013;28;20137;-71
2022/02/11 09:12:21;;;;;;;4.40;3.08;;;;;;;;;;5033548;28;20022;-71
2022/02/11 09:14:47;;;;;;;4.97;2.75;;;;;;;;;;5032623;28;20112;-72
2022/02/11 09:17:13;;;;;;;4.13;2.65;;;;;;;;;;5033504;28;20018;-72
2022/02/11 09:19:39;;;;;;;4.82;3.10;;;;;;;;;;5031849;28;20035;-71
2022/02/11 09:22:05;;;;;;;5.15;2.85;;;;;;;;;;5033499;28;20119;-71
2022/02/11 09:24:31;;;;;;;3.83;2.22;;;;;;;;;;5032824;28;20041;-71
2022/02/11 09:26:57;;;;;;;3.50;2.50;;;;;;;;;;5033429;28;20467;-71
2022/02/11 09:29:23;;;;;;;5.90;2.90;;;;;;;;;;5026672;28;20042;-72
2022/02/11 09:31:50;;;;;;;3.88;2.33;;;;;;;;;;4993788;28;20443;-71
2022/02/11 09:34:16;;;;;;;4.55;2.45;;;;;;;;;;4993250;28;20030;-71
2022/02/11 09:36:42;;;;;;;2.80;1.80;;;;;;;;;;4993879;28;20030;-71
2022/02/11 09:39:09;;;;;;;4.63;3.38;;;;;;;;;;5012649;28;20522;-71
2022/02/11 09:41:35;;;;;;;8.50;2.67;;;;;;;;;;5014402;28;20022;-72
2022/02/11 09:44:02;;;;;;;3.47;2.40;;;;;;;;;;5012303;28;20152;-72
2022/02/11 09:46:31;;;;;;;8.45;2.63;;;;;;;;;;5013366;28;20439;-70
2022/02/11 09:48:58;;;;;;;3.25;2.30;;;;;;;;;;5009478;28;20120;-71
2022/02/11 09:51:24;;;;;;;2.60;2.40;;;;;;;;;;5006631;28;20514;-72
2022/02/11 09:53:51;;;;;;;5.57;2.92;;;;;;;;;;5010953;28;20041;-70
2022/02/11 09:56:17;;;;;;;4.32;3.20;;;;;;;;;;5013040;28;20471;-72
2022/02/11 09:58:43;;;;;;;6.32;3.05;;;;;;;;;;4997373;28;20086;-72
2022/02/11 10:01:09;;;;;;;6.90;3.15;;;;;;;;;;5009861;28;20461;-72
2022/02/11 10:03:35;;;;;;;4.30;3.33;;;;;;;;;;5011982;28;20022;-72
2022/02/11 10:06:01;;;;;;;8.35;3.45;;;;;;;;;;5009429;28;20101;-71
2022/02/11 10:08:29;;;;;;;6.88;3.65;;;;;;;;;;5006605;28;20484;-71
2022/02/11 10:10:57;;;;;;;5.95;3.58;;;;;;;;;;5011884;28;20529;-70
2022/02/11 10:13:25;;;;;;;5.78;3.63;;;;;;;;;;5029324;28;20121;-71
2022/02/11 10:15:54;;;;;;;6.93;3.78;;;;;;;;;;5013516;28;20057;-72
2022/02/11 10:18:24;;;;;;;7.28;3.70;;;;;;;;;;5012624;28;20022;-71
2022/02/11 10:20:53;;;;;;;6.50;4.05;;;;;;;;;;5004861;28;20024;-71
2022/02/11 10:23:23;;;;;;;8.63;3.60;;;;;;;;;;5006579;28;20541;-70
2022/02/11 10:25:52;;;;;;;6.70;3.80;;;;;;;;;;4996076;28;20084;-71
2022/02/11 10:28:25;;;;;;;6.13;3.75;;;;;;;;;;5011078;28;20029;-71
2022/02/11 10:31:04;;;;;;;9.38;3.22;;;;;;;;;;5010488;28;20033;-71
2022/02/11 10:33:48;;;;;;;6.32;3.10;;;;;;;;;;5009854;28;20036;-70
2022/02/11 10:36:15;;;;;;;9.07;3.08;;;;;;;;;;5012537;28;20025;-71
2022/02/11 10:38:41;;;;;;;9.55;3.15;;;;;;;;;;5011817;28;20084;-71
2022/02/11 10:41:07;;;;;;;8.30;4.10;;;;;;;;;;5012288;28;20033;-69
2022/02/11 10:43:33;;;;;;;5.05;2.70;;;;;;;;;;5011833;28;20025;-71
2022/02/11 10:46:01;;;;;;;6.50;3.40;;;;;;;;;;5012262;28;20071;-70
2022/02/11 10:48:28;;;;;;;7.32;3.63;;;;;;;;;;5011932;28;20349;-71
2022/02/11 10:50:55;;;;;;;5.00;2.92;;;;;;;;;;5010878;28;20030;-70
2022/02/11 10:53:31;;;;;;;8.23;3.50;;;;;;;;;;5010244;28;20579;-71
2022/02/11 10:56:04;;;;;;;6.10;3.15;;;;;;;;;;5010622;28;20029;-71
2022/02/11 10:58:32;;;;;;;6.88;3.67;;;;;;;;;;5011634;28;20028;-70
2022/02/11 11:01:01;;;;;;;7.18;3.58;;;;;;;;;;5012165;28;20025;-70
2022/02/11 11:03:33;;;;;;;8.68;4.07;;;;;;;;;;5011101;28;20014;-71
2022/02/11 11:06:01;;;;;;;14.90;3.85;;;;;;;;;;5011850;28;20037;-70
2022/02/11 11:08:29;;;;;;;8.35;4.47;;;;;;;;;;5012122;28;20037;-71
2022/02/11 11:10:58;;;;;;;8.68;4.60;;;;;;;;;;5012064;28;20022;-71
2022/02/11 11:13:24;;;;;;;7.35;4.13;;;;;;;;;;5011378;28;20033;-72
2022/02/11 11:15:51;;;;;;;9.02;4.15;;;;;;;;;;5012304;28;20033;-71
2022/02/11 11:18:18;;;;;;;7.20;3.83;;;;;;;;;;5011543;28;20105;-72
2022/02/11 11:20:45;;;;;;;9.65;4.25;;;;;;;;;;5010692;28;20036;-72
2022/02/11 11:23:26;;;;;;;9.02;3.70;;;;;;;;;;5010434;28;20056;-72
2022/02/11 11:25:53;;;;;;;5.80;3.60;;;;;;;;;;5012543;28;20064;-71
2022/02/11 11:28:38;;;;;;;8.98;3.92;;;;;;;;;;5012436;28;20038;-71
2022/02/11 11:31:15;;;;;;;6.03;3.03;;;;;;;;;;5012122;28;20044;-71
2022/02/11 11:33:41;;;;;;;4.20;3.22;;;;;;;;;;5015592;28;20025;-71
2022/02/11 11:36:11;;;;;;;5.22;3.33;;;;;;;;;;4998772;28;20038;-71
2022/02/11 11:38:42;;;;;;;6.28;4.07;;;;;;;;;;4996670;28;20033;-71
2022/02/11 11:41:10;;;;;;;7.05;3.50;;;;;;;;;;4996729;28;20034;-70
2022/02/11 11:43:37;;;;;;;5.53;3.08;;;;;;;;;;4996539;28;20018;-71
2022/02/11 11:46:20;;;;;;;4.57;3.05;;;;;;;;;;4996325;28;20129;-71
2022/02/11 11:49:01;;;;;;;6.10;3.55;;;;;;;;;;5005523;28;20030;-71
2022/02/11 11:51:28;;;;;;;4.88;3.13;;;;;;;;;;5015987;28;20030;-72
2022/02/11 11:54:13;;;;;;;6.07;3.17;;;;;;;;;;5014623;28;20037;-72
2022/02/11 11:56:41;;;;;;;5.53;3.38;;;;;;;;;;5010874;28;20030;-71
2022/02/11 11:59:14;;;;;;;6.80;3.50;;;;;;;;;;4995683;28;20082;-72
2022/02/11 12:01:54;;;;;;;3.35;2.50;;;;;;;;;;4995775;28;20450;-69
2022/02/11 12:04:23;;;;;;;4.35;2.40;;;;;;;;;;4993563;28;20022;-72
2022/02/11 12:06:50;;;;;;;3.70;2.45;;;;;;;;;;4995492;28;20030;-71
2022/02/11 12:09:15;;;;;;;4.07;3.03;;;;;;;;;;4995528;28;20034;-71
2022/02/11 12:11:42;;;;;;;4.55;2.83;;;;;;;;;;4995503;28;20029;-71
2022/02/11 12:14:08;;;;;;;4.60;2.78;;;;;;;;;;4995164;28;20109;-72
2022/02/11 12:16:34;;;;;;;4.35;2.67;;;;;;;;;;5003368;28;20022;-72
2022/02/11 12:19:00;;;;;;;5.70;2.60;;;;;;;;;;5014550;28;20040;-72
2022/02/11 12:21:26;;;;;;;6.55;2.92;;;;;;;;;;5014783;28;20117;-72
2022/02/11 12:29:23;;;;;;;4.45;3.00;;;;;;;;;;5014566;28;20056;-72
2022/02/11 12:31:55;;;;;;;5.85;2.47;;;;;;;;;;5013436;28;20032;-73
2022/02/11 12:34:21;;;;;;;6.20;2.60;;;;;;;;;;5013938;28;20033;-72
2022/02/11 12:36:47;;;;;;;4.57;2.47;;;;;;;;;;5013708;28;20122;-72
2022/02/11 12:39:17;;;;;;;3.75;2.20;;;;;;;;;;5014610;28;20447;-73
2022/02/11 12:41:44;;;;;;;5.13;3.10;;;;;;;;;;5014446;28;20467;-73
2022/02/11 12:44:10;;;;;;;4.32;2.50;;;;;;;;;;5013133;28;20026;-72
2022/02/11 12:46:36;;;;;;;6.25;2.67;;;;;;;;;;5015376;28;20025;-72
2022/02/11 12:49:04;;;;;;;6.30;2.72;;;;;;;;;;5014378;28;20034;-71
2022/02/11 12:51:30;;;;;;;6.22;3.13;;;;;;;;;;5013443;28;20399;-71
2022/02/11 12:54:06;;;;;;;4.68;2.40;;;;;;;;;;5013706;28;20105;-71
2022/02/11 12:56:33;;;;;;;3.90;2.67;;;;;;;;;;5014213;28;20054;-72
2022/02/11 12:59:05;;;;;;;3.30;2.35;;;;;;;;;;5014679;28;20052;-71
2022/02/11 13:01:32;;;;;;;6.03;2.78;;;;;;;;;;5014607;28;20053;-72
2022/02/11 13:03:58;;;;;;;5.03;2.60;;;;;;;;;;5012179;28;20022;-72
2022/02/11 13:06:25;;;;;;;5.60;2.95;;;;;;;;;;5014400;28;20120;-71
2022/02/11 13:09:00;;;;;;;5.43;3.30;;;;;;;;;;5013995;28;20033;-72
2022/02/11 13:11:27;;;;;;;6.53;3.00;;;;;;;;;;5014140;28;20148;-73
2022/02/11 13:14:00;;;;;;;7.32;3.47;;;;;;;;;;5013223;28;20033;-72
2022/02/11 13:16:26;;;;;;;6.53;3.35;;;;;;;;;;5013805;28;20064;-70
2022/02/11 13:18:51;;;;;;;5.10;2.90;;;;;;;;;;5013766;28;20510;-72
2022/02/11 13:21:20;;;;;;;5.10;2.70;;;;;;;;;;5013490;28;20026;-72
2022/02/11 13:23:50;;;;;;;5.97;3.08;;;;;;;;;;5014252;28;20461;-72
2022/02/11 13:26:16;;;;;;;5.50;2.63;;;;;;;;;;5014718;28;20018;-72
2022/02/11 13:28:44;;;;;;;10.02;3.05;;;;;;;;;;5014066;28;20033;-72
2022/02/11 13:31:10;;;;;;;10.75;3.63;;;;;;;;;;5015383;28;20030;-71
2022/02/11 13:33:36;;;;;;;6.90;2.80;;;;;;;;;;5013587;28;20073;-72
2022/02/11 13:36:04;;;;;;;6.03;3.40;;;;;;;;;;5014215;28;20029;-72
2022/02/11 13:38:31;;;;;;;7.13;3.17;;;;;;;;;;5014077;28;20116;-72
2022/02/11 13:40:58;;;;;;;7.05;2.97;;;;;;;;;;5013749;28;20030;-72
2022/02/11 13:43:25;;;;;;;4.30;2.97;;;;;;;;;;5013510;28;20101;-71
2022/02/11 13:45:52;;;;;;;5.65;3.17;;;;;;;;;;5013780;28;20049;-72
2022/02/11 13:48:20;;;;;;;4.85;3.10;;;;;;;;;;5013710;28;20487;-72
2022/02/11 13:51:05;;;;;;;4.65;3.38;;;;;;;;;;5013244;28;20026;-72
2022/02/11 13:53:34;;;;;;;4.72;3.05;;;;;;;;;;5012417;28;20026;-71
2022/02/11 13:56:01;;;;;;;5.15;3.60;;;;;;;;;;4999222;28;20030;-72
2022/02/11 13:58:27;;;;;;;5.40;2.67;;;;;;;;;;4993393;28;20036;-70
2022/02/11 14:00:53;;;;;;;10.48;3.88;;;;;;;;;;4993471;28;20421;-72
2022/02/11 14:03:30;;;;;;;8.00;3.30;;;;;;;;;;4992721;28;20150;-72
2022/02/11 14:06:00;;;;;;;7.28;4.22;;;;;;;;;;4993644;28;20014;-71
2022/02/11 14:08:39;;;;;;;6.03;3.25;;;;;;;;;;4993788;28;20041;-71
2022/02/11 14:11:09;;;;;;;7.47;3.95;;;;;;;;;;4993226;28;20089;-72
2022/02/11 14:13:35;;;;;;;8.30;4.22;;;;;;;;;;4991242;28;20119;-71
2022/02/11 14:16:01;;;;;;;16.48;7.50;;;;;;;;;;5002801;28;20037;-70
2022/02/11 14:18:27;;;;;;;6.35;3.75;;;;;;;;;;5012123;28;20030;-71
2022/02/11 14:20:53;;;;;;;5.35;3.63;;;;;;;;;;5012483;28;20064;-71
2022/02/11 14:23:21;;;;;;;7.35;4.18;;;;;;;;;;5012302;28;20029;-71
2022/02/11 14:25:47;;;;;;;6.60;3.92;;;;;;;;;;5011188;28;20049;-72
2022/02/11 14:28:14;;;;;;;5.88;4.53;;;;;;;;;;4991309;28;20037;-73
2022/02/11 14:30:41;;;;;;;12.57;4.30;;;;;;;;;;4991215;28;20105;-71
2022/02/11 14:33:07;;;;;;;7.57;4.53;;;;;;;;;;4992138;28;20093;-71
2022/02/11 14:35:33;;;;;;;10.85;4.85;;;;;;;;;;4992546;28;20455;-70
2022/02/11 14:37:59;;;;;;;7.78;4.15;;;;;;;;;;4992741;28;20058;-71
2022/02/11 14:40:24;;;;;;;7.38;4.10;;;;;;;;;;5011209;23;20049;-75
2022/02/11 14:42:50;;;;;;;7.78;4.15;;;;;;;;;;5012235;28;20022;-74
2022/02/11 14:45:17;;;;;;;7.55;4.00;;;;;;;;;;5012506;28;20026;-73
2022/02/11 14:47:43;;;;;;;7.75;3.63;;;;;;;;;;5012626;28;20017;-73
2022/02/11 14:50:09;;;;;;;4.35;3.38;;;;;;;;;;5011446;28;20442;-74
2022/02/11 14:52:35;;;;;;;7.88;3.88;;;;;;;;;;5013234;28;20526;-74
2022/02/11 14:55:01;;;;;;;8.30;4.30;;;;;;;;;;5010699;28;20022;-74
2022/02/11 14:57:30;;;;;;;7.22;3.17;;;;;;;;;;5013214;28;20430;-73
2022/02/11 14:59:56;;;;;;;4.75;3.28;;;;;;;;;;5012532;28;20033;-72
2022/02/11 15:02:22;;;;;;;4.82;2.90;;;;;;;;;;5012777;28;20447;-73
2022/02/11 15:04:48;;;;;;;4.30;2.63;;;;;;;;;;5011839;28;20439;-72
2022/02/11 15:07:14;;;;;;;5.00;3.10;;;;;;;;;;5012255;28;20029;-74
2022/02/11 15:09:40;;;;;;;7.15;3.25;;;;;;;;;;5009195;28;20089;-74
2022/02/11 15:12:09;;;;;;;5.03;3.67;;;;;;;;;;4993128;28;20033;-74
2022/02/11 15:14:35;;;;;;;4.82;2.72;;;;;;;;;;4993970;28;20040;-74
2022/02/11 15:17:01;;;;;;;5.35;2.90;;;;;;;;;;5013340;28;20029;-73
2022/02/11 15:19:27;;;;;;;6.32;3.30;;;;;;;;;;5011986;28;20036;-73
2022/02/11 15:21:53;;;;;;;4.85;2.92;;;;;;;;;;5013236;28;20017;-73
2022/02/11 15:24:19;;;;;;;5.13;3.10;;;;;;;;;;5011807;28;20288;-73
2022/02/11 15:26:46;;;;;;;5.60;3.60;;;;;;;;;;4993500;28;20500;-72
2022/02/11 15:29:12;;;;;;;5.15;2.90;;;;;;;;;;4993197;28;20029;-72
2022/02/11 15:31:39;;;;;;;4.72;2.78;;;;;;;;;;5009644;28;20033;-73
2022/02/11 15:34:05;;;;;;;4.13;2.90;;;;;;;;;;4995716;28;20034;-73
2022/02/11 15:36:32;;;;;;;4.70;3.25;;;;;;;;;;5012341;28;20060;-73
2022/02/11 15:38:58;;;;;;;4.65;2.88;;;;;;;;;;5012341;28;20026;-73
2022/02/11 15:41:24;;;;;;;3.97;2.55;;;;;;;;;;5011047;28;20030;-73
2022/02/11 15:43:50;;;;;;;3.75;2.83;;;;;;;;;;5011981;28;20022;-73
2022/02/11 15:46:17;;;;;;;4.80;2.38;;;;;;;;;;5012180;28;20030;-73
2022/02/11 15:48:43;;;;;;;2.63;2.00;;;;;;;;;;5012303;28;20508;-73
2022/02/11 15:51:10;;;;;;;4.82;2.95;;;;;;;;;;5012162;28;20036;-74
2022/02/11 15:53:36;;;;;;;5.95;2.63;;;;;;;;;;5011724;28;20033;-74
2022/02/11 15:56:02;;;;;;;3.88;2.70;;;;;;;;;;5011163;28;20034;-72
2022/02/11 15:58:28;;;;;;;4.28;2.70;;;;;;;;;;5010750;28;20031;-73
2022/02/11 16:00:54;;;;;;;3.92;2.63;;;;;;;;;;5009608;28;20049;-73
2022/02/11 16:03:21;;;;;;;4.97;2.90;;;;;;;;;;5011109;28;20029;-73
2022/02/11 16:05:47;;;;;;;3.20;2.65;;;;;;;;;;5010680;28;20018;-73
2022/02/11 16:08:13;;;;;;;4.40;2.50;;;;;;;;;;5011823;28;20451;-73
2022/02/11 16:10:39;;;;;;;5.30;2.80;;;;;;;;;;5011767;28;20033;-72
2022/02/11 16:13:05;;;;;;;3.92;2.75;;;;;;;;;;5015063;28;20499;-74
2022/02/11 16:15:31;;;;;;;5.00;3.20;;;;;;;;;;5013722;28;20034;-73
2022/02/11 16:18:00;;;;;;;4.22;2.53;;;;;;;;;;4993950;28;20072;-73
2022/02/11 16:20:29;;;;;;;3.92;2.83;;;;;;;;;;4997036;28;20022;-74
2022/02/11 16:22:56;;;;;;;4.45;2.83;;;;;;;;;;4993346;28;20046;-73
2022/02/11 16:25:22;;;;;;;4.22;2.83;;;;;;;;;;4996012;28;20089;-72
2022/02/11 16:27:51;;;;;;;3.45;2.63;;;;;;;;;;4995993;28;20476;-73
2022/02/11 16:30:17;;;;;;;4.15;2.78;;;;;;;;;;4996276;28;20026;-74
2022/02/11 16:32:43;;;;;;;5.28;3.20;;;;;;;;;;4994095;28;20069;-73
2022/02/11 16:35:09;;;;;;;3.78;2.45;;;;;;;;;;4995571;28;20026;-72
2022/02/11 16:37:35;;;;;;;3.42;2.83;;;;;;;;;;4994506;28;20026;-75
2022/02/11 16:40:01;;;;;;;4.35;3.38;;;;;;;;;;4994239;28;20396;-73
2022/02/11 16:42:28;;;;;;;4.65;3.40;;;;;;;;;;4995493;28;20153;-73
2022/02/11 16:44:54;;;;;;;5.22;2.88;;;;;;;;;;4995035;28;20029;-73
2022/02/11 16:47:20;;;;;;;5.32;3.40;;;;;;;;;;4995864;28;20396;-72
2022/02/11 16:49:49;;;;;;;4.53;3.08;;;;;;;;;;5011994;28;20111;-73
2022/02/11 16:52:15;;;;;;;4.75;3.60;;;;;;;;;;5015396;28;20165;-74
2022/02/11 16:54:41;;;;;;;4.50;3.63;;;;;;;;;;5003983;28;20049;-73
2022/02/11 16:57:07;;;;;;;8.13;3.78;;;;;;;;;;5014311;28;20037;-74
2022/02/11 16:59:33;;;;;;;5.90;3.80;;;;;;;;;;5014887;28;20438;-74
2022/02/11 17:02:00;;;;;;;8.40;3.97;;;;;;;;;;5015466;28;20078;-73
2022/02/11 17:04:26;;;;;;;4.72;3.75;;;;;;;;;;5014421;28;20499;-73
2022/02/11 17:06:52;;;;;;;4.88;4.03;;;;;;;;;;5014796;28;20062;-73
2022/02/11 17:09:18;;;;;;;5.53;4.00;;;;;;;;;;4999631;28;20093;-74
2022/02/11 17:11:44;;;;;;;8.90;4.55;;;;;;;;;;4995691;28;20026;-74
2022/02/11 17:14:10;;;;;;;6.35;4.50;;;;;;;;;;4996695;28;20068;-74
2022/02/11 17:16:36;;;;;;;8.70;4.30;;;;;;;;;;5005929;28;20105;-73
2022/02/11 17:19:02;;;;;;;9.35;4.63;;;;;;;;;;5016595;28;20088;-73
2022/02/11 17:21:29;;;;;;;5.63;3.67;;;;;;;;;;5016566;28;20021;-73
2022/02/11 17:23:55;;;;;;;6.43;4.30;;;;;;;;;;5017484;28;20025;-73
2022/02/11 17:26:22;;;;;;;6.75;3.72;;;;;;;;;;5016130;28;20026;-74
2022/02/11 17:28:48;;;;;;;6.60;4.22;;;;;;;;;;5015663;28;20472;-73
2022/02/11 17:31:14;;;;;;;7.72;4.70;;;;;;;;;;5013370;28;20033;-73
2022/02/11 17:33:40;;;;;;;6.07;4.25;;;;;;;;;;5014344;28;20034;-73
2022/02/11 17:36:06;;;;;;;8.05;4.85;;;;;;;;;;5013011;28;20026;-74
2022/02/11 17:38:32;;;;;;;4.28;3.47;;;;;;;;;;5014016;28;20018;-72
2022/02/11 17:40:59;;;;;;;8.45;4.07;;;;;;;;;;5013048;28;20089;-73
2022/02/11 17:43:25;;;;;;;4.88;3.53;;;;;;;;;;5012812;28;20049;-73
2022/02/11 17:45:51;;;;;;;5.90;3.90;;;;;;;;;;5012705;28;20110;-74
2022/02/11 17:48:18;;;;;;;5.97;3.47;;;;;;;;;;5013606;28;20026;-73
2022/02/11 17:50:44;;;;;;;5.90;2.80;;;;;;;;;;5013792;28;20040;-73
2022/02/11 17:53:10;;;;;;;5.68;3.75;;;;;;;;;;5013387;28;20026;-73
2022/02/11 17:55:36;;;;;;;7.07;4.30;;;;;;;;;;5013809;28;20571;-73
2022/02/11 17:58:02;;;;;;;5.38;3.40;;;;;;;;;;5012246;28;20125;-74
2022/02/11 18:00:28;;;;;;;6.30;3.90;;;;;;;;;;5013961;28;20034;-72
2022/02/11 18:02:54;;;;;;;6.55;4.50;;;;;;;;;;5012021;28;20030;-74
2022/02/11 18:05:22;;;;;;;7.32;4.05;;;;;;;;;;5013492;28;20022;-74
2022/02/11 18:07:48;;;;;;;7.53;4.05;;;;;;;;;;5013965;28;20018;-73
2022/02/11 18:10:16;;;;;;;7.25;4.13;;;;;;;;;;5013586;28;20030;-74
2022/02/11 18:12:42;;;;;;;6.32;4.45;;;;;;;;;;5013517;28;20018;-74
2022/02/11 18:15:08;;;;;;;5.00;4.47;;;;;;;;;;5013165;28;20033;-73
2022/02/11 18:17:34;;;;;;;6.38;4.72;;;;;;;;;;5012052;28;20030;-73
2022/02/11 18:20:00;;;;;;;5.80;4.80;;;;;;;;;;5013385;28;20526;-73
2022/02/11 18:22:27;;;;;;;5.30;4.25;;;;;;;;;;5013625;28;20040;-73
2022/02/11 18:24:53;;;;;;;5.18;4.45;;;;;;;;;;5012404;28;20465;-73
2022/02/11 18:27:19;;;;;;;6.20;4.70;;;;;;;;;;5013239;28;20063;-73